Archer, Nebraska
Current Conditions -  °F | °C
As of 11:53 AM on Monday 26 Jan 2015 (Local Time) from KGRI Reporting Station
Clear Clear  
Wind Chill: 58°   Ceiling: Unl
Heat Index: 58°   Visibility: 10mi
Dew Point: 33°   Wind: 16mph
Humidity: 39%   Direction: 330°NNW
Pressure: 30.03"   Gusts: 23mph
Location:  41.17°N, 98.14°W
Report Text: KGRI 261753Z 33014G20KT 10SM CLR 14/01 A3003 RMK AO2 SLP179 T01440006 10150 20006 53020
Loading
Personal Weather Stations






























Interactive Weather Map New forecast layout! Learn more

10-Day Weather Forecast

Advertisements
Track Severe Weather on mobile